Time,TemperatureF,DewpointF,PressureIn,WindDirection,WindDirectionDegrees,WindSpeedMPH,WindSpeedGustMPH,Humidity,HourlyPrecipIn,Conditions,Clouds,dailyrainin,SoftwareType,DateUTC
2013-11-25 00:12:00,66.0,62.0,30.16,NE,49,5.0,10.0,84,-99.99,,,-99.99,,2013-11-25 05:12:00,
2013-11-25 00:23:00,66.0,62.0,30.16,NE,55,6.0,12.0,84,-99.99,,,-99.99,,2013-11-25 05:23:00,
2013-11-25 00:33:00,66.0,62.0,30.16,NE,55,6.0,12.0,84,-99.99,,,-99.99,,2013-11-25 05:33:00,
2013-11-25 00:53:00,66.0,61.0,30.16,ENE,64,4.0,11.0,85,-99.99,,,-99.99,,2013-11-25 05:53:00,
2013-11-25 01:12:00,66.0,62.0,30.16,NE,56,4.0,7.0,86,-99.99,,,-99.99,,2013-11-25 06:12:00,
2013-11-25 01:22:00,66.0,62.0,30.15,NE,48,4.0,8.0,86,-99.99,,,-99.99,,2013-11-25 06:22:00,
2013-11-25 01:32:00,66.0,62.0,30.15,NE,48,4.0,8.0,86,-99.99,,,-99.99,,2013-11-25 06:32:00,
2013-11-25 02:11:00,65.0,61.0,30.15,NE,47,5.0,10.0,86,-99.99,,,-99.99,,2013-11-25 07:11:00,
2013-11-25 02:22:00,65.0,61.0,30.14,NE,43,5.0,9.0,87,-99.99,,,-99.99,,2013-11-25 07:22:00,
2013-11-25 02:32:00,65.0,61.0,30.14,NE,43,5.0,9.0,87,-99.99,,,-99.99,,2013-11-25 07:32:00,
2013-11-25 02:52:00,65.0,61.0,30.14,NE,50,4.0,9.0,87,-99.99,,,-99.99,,2013-11-25 07:52:00,
2013-11-25 03:11:00,65.0,61.0,30.14,NE,45,4.0,8.0,87,-99.99,,,-99.99,,2013-11-25 08:11:00,
2013-11-25 03:22:00,65.0,61.0,30.14,NE,50,5.0,8.0,87,-99.99,,,-99.99,,2013-11-25 08:22:00,
2013-11-25 03:32:00,65.0,61.0,30.14,NE,50,5.0,8.0,87,-99.99,,,-99.99,,2013-11-25 08:32:00,
2013-11-25 03:52:00,65.0,61.0,30.13,NE,54,6.0,13.0,85,-99.99,,,-99.99,,2013-11-25 08:52:00,
2013-11-25 04:11:00,66.0,61.0,30.14,ENE,57,6.0,17.0,83,-99.99,,,-99.99,,2013-11-25 09:11:00,
2013-11-25 04:22:00,66.0,61.0,30.14,ENE,57,7.0,12.0,82,-99.99,,,-99.99,,2013-11-25 09:22:00,
2013-11-25 04:43:00,66.0,60.0,30.14,ENE,62,7.0,14.0,81,-99.99,,,-99.99,,2013-11-25 09:43:00,
2013-11-25 05:12:00,66.0,60.0,30.13,ENE,57,6.0,14.0,80,-99.99,,,-99.99,,2013-11-25 10:12:00,
2013-11-25 05:23:00,66.0,60.0,30.13,ENE,63,6.0,12.0,79,-99.99,,,-99.99,,2013-11-25 10:23:00,
2013-11-25 05:34:00,66.0,60.0,30.13,ENE,63,6.0,12.0,79,-99.99,,,-99.99,,2013-11-25 10:34:00,
2013-11-25 05:53:00,66.0,59.0,30.13,ENE,69,6.0,13.0,79,-99.99,,,-99.99,,2013-11-25 10:53:00,
2013-11-25 06:22:00,66.0,59.0,30.12,ENE,62,6.0,13.0,79,-99.99,,,-99.99,,2013-11-25 11:22:00,
2013-11-25 06:33:00,66.0,59.0,30.12,ENE,62,6.0,13.0,79,-99.99,,,-99.99,,2013-11-25 11:33:00,
2013-11-25 06:52:00,65.0,59.0,30.13,NE,55,5.0,10.0,81,-99.99,,,-99.99,,2013-11-25 11:52:00,
2013-11-25 07:12:00,65.0,59.0,30.14,NE,54,4.0,8.0,82,-99.99,,,-99.99,,2013-11-25 12:12:00,
2013-11-25 07:22:00,64.0,59.0,30.14,ENE,69,4.0,8.0,82,-99.99,,,-99.99,,2013-11-25 12:22:00,
2013-11-25 07:32:00,64.0,59.0,30.14,ENE,69,4.0,8.0,82,-99.99,,,-99.99,,2013-11-25 12:32:00,
2013-11-25 07:52:00,65.0,59.0,30.14,ENE,70,4.0,9.0,81,-99.99,,,-99.99,,2013-11-25 12:52:00,
2013-11-25 08:12:00,65.0,59.0,30.14,East,82,5.0,10.0,81,-99.99,,,-99.99,,2013-11-25 13:12:00,
2013-11-25 08:22:00,65.0,59.0,30.15,ENE,65,4.0,8.0,80,-99.99,,,-99.99,,2013-11-25 13:22:00,
2013-11-25 08:32:00,65.0,59.0,30.15,ENE,65,4.0,8.0,80,-99.99,,,-99.99,,2013-11-25 13:32:00,
2013-11-25 08:52:00,67.0,60.0,30.17,NE,54,5.0,9.0,75,-99.99,,,-99.99,,2013-11-25 13:52:00,
2013-11-25 09:12:00,69.0,60.0,30.17,ENE,72,5.0,11.0,72,-99.99,,,-99.99,,2013-11-25 14:12:00,
2013-11-25 09:22:00,70.0,60.0,30.18,ENE,59,6.0,13.0,70,-99.99,,,-99.99,,2013-11-25 14:22:00,
2013-11-25 09:32:00,70.0,60.0,30.18,ENE,59,6.0,13.0,70,-99.99,,,-99.99,,2013-11-25 14:32:00,
2013-11-25 09:52:00,72.0,61.0,30.19,ENE,73,8.0,15.0,66,-99.99,,,-99.99,,2013-11-25 14:52:00,
2013-11-25 10:22:00,74.0,61.0,30.19,East,79,10.0,19.0,63,-99.99,,,-99.99,,2013-11-25 15:22:00,
2013-11-25 10:44:00,75.0,61.0,30.19,East,82,11.0,21.0,61,-99.99,,,-99.99,,2013-11-25 15:44:00,
2013-11-25 10:54:00,75.0,61.0,30.19,East,82,11.0,21.0,61,-99.99,,,-99.99,,2013-11-25 15:54:00,
2013-11-25 11:23:00,76.0,62.0,30.19,East,81,11.0,26.0,60,-99.99,,,-99.99,,2013-11-25 16:23:00,
2013-11-25 11:33:00,76.0,62.0,30.19,East,81,11.0,26.0,60,-99.99,,,-99.99,,2013-11-25 16:33:00,
2013-11-25 11:52:00,77.0,62.0,30.19,East,83,11.0,22.0,59,-99.99,,,-99.99,,2013-11-25 16:52:00,
2013-11-25 12:12:00,77.0,61.0,30.18,East,92,11.0,21.0,58,-99.99,,,-99.99,,2013-11-25 17:12:00,
2013-11-25 12:22:00,79.0,63.0,30.17,East,87,9.0,16.0,57,-99.99,,,-99.99,,2013-11-25 17:22:00,
2013-11-25 12:33:00,79.0,63.0,30.17,East,87,9.0,16.0,57,-99.99,,,-99.99,,2013-11-25 17:33:00,
2013-11-25 12:52:00,78.0,62.0,30.16,ESE,105,10.0,18.0,57,-99.99,,,-99.99,,2013-11-25 17:52:00,
2013-11-25 13:12:00,79.0,63.0,30.15,East,97,11.0,23.0,56,-99.99,,,-99.99,,2013-11-25 18:12:00,
2013-11-25 13:22:00,78.0,63.0,30.15,East,95,10.0,19.0,59,-99.99,,,-99.99,,2013-11-25 18:22:00,
2013-11-25 13:33:00,78.0,63.0,30.15,East,95,10.0,19.0,59,-99.99,,,-99.99,,2013-11-25 18:33:00,
2013-11-25 13:52:00,78.0,63.0,30.13,ESE,106,11.0,19.0,60,-99.99,,,-99.99,,2013-11-25 18:52:00,
2013-11-25 14:11:00,78.0,63.0,30.11,ESE,108,11.0,21.0,59,-99.99,,,-99.99,,2013-11-25 19:11:00,
2013-11-25 14:22:00,79.0,63.0,30.11,East,92,11.0,19.0,57,-99.99,,,-99.99,,2013-11-25 19:22:00,
2013-11-25 14:32:00,79.0,63.0,30.11,East,92,11.0,19.0,57,-99.99,,,-99.99,,2013-11-25 19:32:00,
2013-11-25 15:12:00,76.0,64.0,30.11,East,93,8.0,16.0,65,-99.99,,,-99.99,,2013-11-25 20:12:00,
2013-11-25 15:22:00,75.0,64.0,30.11,East,94,9.0,16.0,66,-99.99,,,-99.99,,2013-11-25 20:22:00,
2013-11-25 15:32:00,75.0,64.0,30.11,East,94,9.0,16.0,66,-99.99,,,-99.99,,2013-11-25 20:32:00,
2013-11-25 15:53:00,75.0,64.0,30.10,East,87,8.0,17.0,67,-99.99,,,-99.99,,2013-11-25 20:53:00,
2013-11-25 16:11:00,75.0,64.0,30.10,East,93,7.0,14.0,67,-99.99,,,-99.99,,2013-11-25 21:11:00,
2013-11-25 16:22:00,75.0,64.0,30.10,East,86,7.0,16.0,68,-99.99,,,-99.99,,2013-11-25 21:22:00,
2013-11-25 16:33:00,75.0,64.0,30.10,East,86,7.0,16.0,68,-99.99,,,-99.99,,2013-11-25 21:33:00,
2013-11-25 16:54:00,74.0,64.0,30.10,ENE,75,6.0,14.0,69,-99.99,,,-99.99,,2013-11-25 21:54:00,
2013-11-25 17:13:00,74.0,64.0,30.10,ENE,78,6.0,11.0,71,-99.99,,,-99.99,,2013-11-25 22:13:00,
2013-11-25 17:23:00,74.0,64.0,30.09,East,87,7.0,15.0,70,-99.99,,,-99.99,,2013-11-25 22:23:00,
2013-11-25 17:33:00,74.0,64.0,30.09,East,87,7.0,15.0,70,-99.99,,,-99.99,,2013-11-25 22:33:00,
2013-11-25 17:53:00,73.0,64.0,30.09,East,84,7.0,12.0,73,-99.99,,,-99.99,,2013-11-25 22:53:00,
2013-11-25 18:12:00,72.0,64.0,30.10,East,83,6.0,12.0,73,-99.99,,,-99.99,,2013-11-25 23:12:00,
2013-11-25 18:22:00,72.0,63.0,30.10,ENE,76,6.0,12.0,74,-99.99,,,-99.99,,2013-11-25 23:22:00,
2013-11-25 18:33:00,72.0,63.0,30.10,ENE,76,6.0,12.0,74,-99.99,,,-99.99,,2013-11-25 23:33:00,
2013-11-25 18:52:00,71.0,63.0,30.10,East,79,6.0,13.0,76,-99.99,,,-99.99,,2013-11-25 23:52:00,
2013-11-25 19:22:00,71.0,64.0,30.10,ENE,75,6.0,11.0,78,-99.99,,,-99.99,,2013-11-26 00:22:00,
2013-11-25 19:32:00,71.0,64.0,30.10,ENE,75,6.0,11.0,78,-99.99,,,-99.99,,2013-11-26 00:32:00,
2013-11-25 19:52:00,70.0,64.0,30.11,ENE,69,6.0,15.0,79,-99.99,,,-99.99,,2013-11-26 00:52:00,
2013-11-25 20:11:00,70.0,64.0,30.11,ENE,74,6.0,11.0,80,-99.99,,,-99.99,,2013-11-26 01:11:00,
2013-11-25 20:22:00,70.0,64.0,30.11,ENE,70,5.0,11.0,80,-99.99,,,-99.99,,2013-11-26 01:22:00,
2013-11-25 20:32:00,70.0,64.0,30.11,ENE,70,5.0,11.0,80,-99.99,,,-99.99,,2013-11-26 01:32:00,
2013-11-25 20:52:00,70.0,64.0,30.11,ENE,69,5.0,16.0,82,-99.99,,,-99.99,,2013-11-26 01:52:00,
2013-11-25 21:11:00,70.0,64.0,30.11,ENE,66,6.0,11.0,82,-99.99,,,-99.99,,2013-11-26 02:11:00,
2013-11-25 21:22:00,69.0,64.0,30.11,ENE,78,6.0,12.0,82,-99.99,,,-99.99,,2013-11-26 02:22:00,
2013-11-25 21:32:00,69.0,64.0,30.11,ENE,78,6.0,12.0,82,-99.99,,,-99.99,,2013-11-26 02:32:00,
2013-11-25 21:52:00,69.0,64.0,30.11,ENE,76,6.0,13.0,83,-99.99,,,-99.99,,2013-11-26 02:52:00,
2013-11-25 22:11:00,69.0,64.0,30.10,East,84,7.0,14.0,83,-99.99,,,-99.99,,2013-11-26 03:11:00,
2013-11-25 22:22:00,69.0,64.0,30.09,East,81,7.0,14.0,84,-99.99,,,-99.99,,2013-11-26 03:22:00,
2013-11-25 22:33:00,69.0,64.0,30.09,East,81,7.0,14.0,84,-99.99,,,-99.99,,2013-11-26 03:33:00,
2013-11-25 23:23:00,69.0,65.0,30.07,East,85,6.0,13.0,86,-99.99,,,-99.99,,2013-11-26 04:23:00,
2013-11-25 23:43:00,69.0,65.0,30.07,East,82,5.0,11.0,87,-99.99,,,-99.99,,2013-11-26 04:43:00,
2013-11-25 23:53:00,69.0,65.0,30.07,East,82,5.0,11.0,87,-99.99,,,-99.99,,2013-11-26 04:53:00,